Time;durP1;ratioP1;P1;durP2;ratioP2;P2;SDS_P1;SDS_P2;PMS_P1;PMS_P2;Temp;Humidity;BMP_temperature;BMP_pressure;BME280_temperature;BME280_humidity;BME280_pressure;Samples;Min_cycle;Max_cycle;Signal;HPM_P1;HPM_P2
2021/08/26 00:00:17;;;;;;;;;;;23.30;46.60;;;;;;1619211;72;691;-69
2021/08/26 00:07:01;;;;;;;;;;;23.30;46.60;;;;;;1612497;72;1922;-70
2021/08/26 00:09:02;;;;;;;;;;;23.30;46.60;;;;;;1617092;72;1112;-71
2021/08/26 00:11:05;;;;;;;;;;;23.30;46.80;;;;;;1618795;72;728;-71
2021/08/26 00:13:07;;;;;;;;;;;23.40;46.90;;;;;;1583001;74;759;-71
2021/08/26 00:15:09;;;;;;;;;;;23.40;46.90;;;;;;1616700;73;696;-71
2021/08/26 00:17:11;;;;;;;;;;;23.30;47.10;;;;;;1619230;73;652;-70
2021/08/26 00:19:13;;;;;;;;;;;23.30;47.20;;;;;;1616483;72;732;-71
2021/08/26 00:21:15;;;;;;;;;;;23.30;47.20;;;;;;1616723;72;744;-72
2021/08/26 00:23:17;;;;;;;;;;;23.30;47.10;;;;;;1617090;72;727;-71
2021/08/26 00:25:18;;;;;;;;;;;23.40;47.10;;;;;;1617769;72;1186;-71
2021/08/26 00:27:23;;;;;;;;;;;23.30;47.00;;;;;;1618061;72;1923;-71
2021/08/26 00:29:24;;;;;;;;;;;23.40;46.90;;;;;;1617216;73;991;-70
2021/08/26 00:31:26;;;;;;;;;;;23.30;46.80;;;;;;1616309;72;731;-71
2021/08/26 00:33:28;;;;;;;;;;;23.40;46.80;;;;;;1612280;72;729;-71
2021/08/26 00:35:29;;;;;;;;;;;23.40;46.80;;;;;;1618791;72;1143;-70
2021/08/26 00:37:31;;;;;;;;;;;23.30;46.80;;;;;;1619009;72;703;-70
2021/08/26 00:39:33;;;;;;;;;;;23.40;46.70;;;;;;1617031;73;705;-70
2021/08/26 00:41:36;;;;;;;;;;;23.40;46.70;;;;;;1615460;72;683;-70
2021/08/26 00:43:37;;;;;;;;;;;23.40;46.70;;;;;;1616632;72;719;-71
2021/08/26 00:45:40;;;;;;;;;;;23.40;46.60;;;;;;1618753;72;1138;-70
2021/08/26 00:47:45;;;;;;;;;;;23.40;46.50;;;;;;1612503;73;1924;-71
2021/08/26 00:49:48;;;;;;;;;;;23.40;46.50;;;;;;1619148;72;773;-70
2021/08/26 00:51:50;;;;;;;;;;;23.40;46.50;;;;;;1613976;72;1077;-69
2021/08/26 00:53:53;;;;;;;;;;;23.40;46.40;;;;;;1609389;72;716;-69
2021/08/26 00:55:55;;;;;;;;;;;23.50;46.50;;;;;;1610158;73;1197;-71
2021/08/26 00:57:57;;;;;;;;;;;23.40;46.50;;;;;;1615763;73;718;-70
2021/08/26 00:59:59;;;;;;;;;;;23.40;46.50;;;;;;1619498;72;811;-69
2021/08/26 01:02:06;;;;;;;;;;;23.30;46.50;;;;;;1609940;72;696;-70
2021/08/26 01:04:28;;;;;;;;;;;23.50;46.60;;;;;;1612881;73;815;-69
2021/08/26 01:06:34;;;;;;;;;;;23.40;46.40;;;;;;1618383;72;1236;-69
2021/08/26 01:08:37;;;;;;;;;;;23.40;46.40;;;;;;1616136;73;1924;-69
2021/08/26 01:10:40;;;;;;;;;;;23.30;46.50;;;;;;1598466;73;1037;-69
2021/08/26 01:12:43;;;;;;;;;;;23.40;46.50;;;;;;1606347;73;764;-69
2021/08/26 01:14:45;;;;;;;;;;;23.30;46.60;;;;;;1620147;73;567;-69
2021/08/26 01:16:47;;;;;;;;;;;23.40;46.60;;;;;;1617140;73;1131;-70
2021/08/26 01:18:49;;;;;;;;;;;23.40;46.60;;;;;;1614872;72;624;-69
2021/08/26 01:20:51;;;;;;;;;;;23.30;46.50;;;;;;1620226;73;703;-67
2021/08/26 01:22:53;;;;;;;;;;;23.40;46.50;;;;;;1602629;73;714;-66
2021/08/26 01:25:08;;;;;;;;;;;23.40;46.50;;;;;;1612665;73;729;-66
2021/08/26 01:27:10;;;;;;;;;;;23.40;46.40;;;;;;1602656;73;1949;-67
2021/08/26 01:29:12;;;;;;;;;;;23.30;46.40;;;;;;1609136;73;648;-69
2021/08/26 01:31:14;;;;;;;;;;;23.40;46.40;;;;;;1610982;73;819;-67
2021/08/26 01:33:16;;;;;;;;;;;23.40;46.40;;;;;;1606691;73;794;-68
2021/08/26 01:35:18;;;;;;;;;;;23.40;46.30;;;;;;1605297;73;1164;-68
2021/08/26 01:37:22;;;;;;;;;;;23.40;46.30;;;;;;1612729;73;710;-69
2021/08/26 01:39:24;;;;;;;;;;;23.30;46.30;;;;;;1601995;73;1291;-69
2021/08/26 01:41:27;;;;;;;;;;;23.40;46.30;;;;;;1611331;72;706;-69
2021/08/26 01:43:32;;;;;;;;;;;23.40;46.30;;;;;;1609397;73;1016;-69
2021/08/26 01:45:33;;;;;;;;;;;23.40;46.20;;;;;;1621483;72;1628;-70
2021/08/26 01:47:35;;;;;;;;;;;23.30;46.20;;;;;;1608904;72;1931;-70
2021/08/26 01:49:37;;;;;;;;;;;23.40;46.10;;;;;;1610915;73;651;-69
2021/08/26 01:51:39;;;;;;;;;;;23.40;46.20;;;;;;1577833;74;686;-69
2021/08/26 01:53:41;;;;;;;;;;;23.50;46.30;;;;;;1561611;74;767;-69
2021/08/26 01:55:45;;;;;;;;;;;23.30;46.10;;;;;;1577142;73;2037;-67
2021/08/26 01:57:47;;;;;;;;;;;23.30;46.10;;;;;;1615094;71;644;-68
2021/08/26 01:59:48;;;;;;;;;;;23.30;46.00;;;;;;1603537;71;806;-68
2021/08/26 02:01:50;;;;;;;;;;;23.40;46.00;;;;;;1608240;71;760;-68
2021/08/26 02:03:52;;;;;;;;;;;23.40;46.10;;;;;;1618672;71;1008;-68
2021/08/26 02:05:54;;;;;;;;;;;23.40;46.00;;;;;;1604686;71;1198;-68
2021/08/26 02:07:56;;;;;;;;;;;23.40;46.10;;;;;;1580893;73;1940;-68
2021/08/26 02:09:58;;;;;;;;;;;23.40;46.00;;;;;;1586706;73;762;-70
2021/08/26 02:12:00;;;;;;;;;;;23.40;46.10;;;;;;1597163;73;718;-67
2021/08/26 02:14:02;;;;;;;;;;;23.40;46.10;;;;;;1595545;73;705;-67
2021/08/26 02:16:04;;;;;;;;;;;23.40;46.20;;;;;;1593680;73;1140;-68
2021/08/26 02:18:06;;;;;;;;;;;23.40;46.20;;;;;;1592013;73;744;-68
2021/08/26 02:20:08;;;;;;;;;;;23.40;46.10;;;;;;1594252;73;747;-68
2021/08/26 02:22:10;;;;;;;;;;;23.30;46.20;;;;;;1585983;73;712;-69
2021/08/26 02:24:11;;;;;;;;;;;23.40;46.20;;;;;;1577815;74;615;-67
2021/08/26 02:26:13;;;;;;;;;;;23.40;46.20;;;;;;1595352;73;1067;-67
2021/08/26 02:28:15;;;;;;;;;;;23.40;46.20;;;;;;1587795;73;1945;-67
2021/08/26 02:30:17;;;;;;;;;;;23.40;46.20;;;;;;1583790;74;783;-65
2021/08/26 02:32:19;;;;;;;;;;;23.40;46.10;;;;;;1580651;74;793;-66
2021/08/26 02:34:21;;;;;;;;;;;23.40;46.00;;;;;;1587711;73;779;-67
2021/08/26 02:36:23;;;;;;;;;;;23.40;46.00;;;;;;1575757;73;1142;-66
2021/08/26 02:38:25;;;;;;;;;;;23.40;46.00;;;;;;1592675;73;829;-67
2021/08/26 02:40:26;;;;;;;;;;;23.40;46.00;;;;;;1576580;73;710;-67
2021/08/26 02:42:29;;;;;;;;;;;23.40;46.00;;;;;;1583582;73;720;-68
2021/08/26 02:44:31;;;;;;;;;;;23.40;46.00;;;;;;1585927;73;699;-67
2021/08/26 02:46:33;;;;;;;;;;;23.40;46.00;;;;;;1584424;73;1148;-67
2021/08/26 02:48:35;;;;;;;;;;;23.40;46.00;;;;;;1578606;73;1937;-68
2021/08/26 02:50:37;;;;;;;;;;;23.40;46.00;;;;;;1584956;73;910;-66
2021/08/26 02:52:39;;;;;;;;;;;23.40;45.90;;;;;;1589955;74;728;-68
2021/08/26 02:54:41;;;;;;;;;;;23.40;45.90;;;;;;1582369;73;686;-67
2021/08/26 02:56:42;;;;;;;;;;;23.40;45.80;;;;;;1592856;73;1131;-67
2021/08/26 02:58:44;;;;;;;;;;;23.40;45.90;;;;;;1588370;73;717;-67
2021/08/26 03:00:46;;;;;;;;;;;23.40;45.90;;;;;;1577388;73;787;-67
2021/08/26 03:02:48;;;;;;;;;;;23.40;45.80;;;;;;1591977;73;714;-67
2021/08/26 03:04:50;;;;;;;;;;;23.40;45.80;;;;;;1591054;73;699;-67
2021/08/26 03:06:52;;;;;;;;;;;23.40;45.90;;;;;;1586776;73;1168;-67
2021/08/26 03:08:54;;;;;;;;;;;23.40;45.80;;;;;;1588534;74;1952;-67
2021/08/26 03:10:55;;;;;;;;;;;23.40;45.70;;;;;;1589332;73;748;-67
2021/08/26 03:12:57;;;;;;;;;;;23.40;45.90;;;;;;1572036;73;797;-67
2021/08/26 03:14:59;;;;;;;;;;;23.40;45.90;;;;;;1583416;73;690;-66
2021/08/26 03:17:01;;;;;;;;;;;23.40;45.90;;;;;;1591133;73;1119;-67
2021/08/26 03:19:03;;;;;;;;;;;23.30;45.80;;;;;;1595190;73;770;-66
2021/08/26 03:21:05;;;;;;;;;;;23.40;45.80;;;;;;1586263;74;737;-66
2021/08/26 03:23:07;;;;;;;;;;;23.40;45.80;;;;;;1584188;73;828;-68
2021/08/26 03:25:09;;;;;;;;;;;23.40;45.80;;;;;;1588360;73;745;-67
2021/08/26 03:27:11;;;;;;;;;;;23.40;45.80;;;;;;1593254;73;1135;-68
2021/08/26 03:29:13;;;;;;;;;;;23.40;45.70;;;;;;1594003;73;1933;-67
2021/08/26 03:31:15;;;;;;;;;;;23.40;45.80;;;;;;1586961;73;681;-68
2021/08/26 03:33:17;;;;;;;;;;;23.40;45.90;;;;;;1586027;73;736;-68
2021/08/26 03:35:18;;;;;;;;;;;23.40;45.70;;;;;;1584736;73;664;-68
2021/08/26 03:37:20;;;;;;;;;;;23.50;45.70;;;;;;1588463;74;1091;-69
2021/08/26 03:39:22;;;;;;;;;;;23.40;45.70;;;;;;1592521;73;810;-68
2021/08/26 03:41:24;;;;;;;;;;;23.30;45.50;;;;;;1590272;73;747;-68
2021/08/26 03:43:26;;;;;;;;;;;23.40;45.50;;;;;;1585236;73;821;-69
2021/08/26 03:45:28;;;;;;;;;;;23.30;45.50;;;;;;1594345;74;802;-69
2021/08/26 03:47:30;;;;;;;;;;;23.30;45.50;;;;;;1593581;73;1104;-68
2021/08/26 03:49:32;;;;;;;;;;;23.30;45.50;;;;;;1596413;73;1933;-68
2021/08/26 03:51:34;;;;;;;;;;;23.40;45.50;;;;;;1582781;73;775;-68
2021/08/26 03:53:36;;;;;;;;;;;23.40;45.50;;;;;;1573895;73;789;-68
2021/08/26 03:55:37;;;;;;;;;;;23.40;45.50;;;;;;1580202;73;1171;-69
2021/08/26 03:57:39;;;;;;;;;;;23.30;45.50;;;;;;1588621;73;801;-68
2021/08/26 03:59:41;;;;;;;;;;;23.30;45.50;;;;;;1589288;73;738;-69
2021/08/26 04:01:43;;;;;;;;;;;23.30;45.50;;;;;;1589025;73;799;-70
2021/08/26 04:03:45;;;;;;;;;;;23.40;45.50;;;;;;1581986;73;776;-68
2021/08/26 04:05:47;;;;;;;;;;;23.30;45.50;;;;;;1586977;73;1117;-66
2021/08/26 04:07:49;;;;;;;;;;;23.30;45.40;;;;;;1591593;73;1942;-68
2021/08/26 04:09:50;;;;;;;;;;;23.40;45.50;;;;;;1584597;73;745;-65
2021/08/26 04:11:52;;;;;;;;;;;23.40;45.40;;;;;;1593794;73;710;-68
2021/08/26 04:13:54;;;;;;;;;;;23.30;45.40;;;;;;1593186;73;743;-69
2021/08/26 04:15:56;;;;;;;;;;;23.30;45.40;;;;;;1597573;73;1184;-69
2021/08/26 04:17:58;;;;;;;;;;;23.40;45.50;;;;;;1584196;73;772;-68
2021/08/26 04:20:00;;;;;;;;;;;23.30;45.50;;;;;;1582422;73;783;-69
2021/08/26 04:22:02;;;;;;;;;;;23.40;45.50;;;;;;1620706;73;777;-68
2021/08/26 04:24:04;;;;;;;;;;;23.30;45.50;;;;;;1609322;72;742;-69
2021/08/26 04:26:06;;;;;;;;;;;23.40;45.40;;;;;;1619969;72;1130;-68
2021/08/26 04:28:08;;;;;;;;;;;23.40;45.40;;;;;;1602718;73;1916;-68
2021/08/26 04:30:11;;;;;;;;;;;23.40;45.40;;;;;;1579147;73;780;-68
2021/08/26 04:32:13;;;;;;;;;;;23.40;45.50;;;;;;1589581;73;823;-67
2021/08/26 04:34:14;;;;;;;;;;;23.40;45.50;;;;;;1609378;73;757;-68
2021/08/26 04:36:16;;;;;;;;;;;23.40;45.60;;;;;;1603696;74;1135;-67
2021/08/26 04:38:18;;;;;;;;;;;23.40;45.50;;;;;;1607527;73;776;-67
2021/08/26 04:40:20;;;;;;;;;;;23.30;45.50;;;;;;1607737;73;786;-68
2021/08/26 04:42:22;;;;;;;;;;;23.40;45.30;;;;;;1599429;73;818;-67
2021/08/26 04:44:24;;;;;;;;;;;23.30;45.50;;;;;;1604690;73;790;-69
2021/08/26 04:46:27;;;;;;;;;;;23.30;45.30;;;;;;1596491;74;1147;-68
2021/08/26 04:48:29;;;;;;;;;;;23.40;45.40;;;;;;1596118;73;1916;-68
2021/08/26 04:50:31;;;;;;;;;;;23.30;45.40;;;;;;1599325;74;805;-67
2021/08/26 04:52:33;;;;;;;;;;;23.40;45.20;;;;;;1585240;73;661;-68
2021/08/26 04:54:34;;;;;;;;;;;23.40;45.20;;;;;;1603687;73;752;-67
2021/08/26 04:56:36;;;;;;;;;;;23.40;45.20;;;;;;1609122;73;1103;-68
2021/08/26 04:58:39;;;;;;;;;;;23.40;45.20;;;;;;1602833;73;805;-67
2021/08/26 05:00:41;;;;;;;;;;;23.30;45.40;;;;;;1593299;74;757;-68
2021/08/26 05:02:43;;;;;;;;;;;23.30;45.40;;;;;;1598466;73;689;-68
2021/08/26 05:04:45;;;;;;;;;;;23.40;45.40;;;;;;1603451;72;753;-67
2021/08/26 05:06:47;;;;;;;;;;;23.40;45.50;;;;;;1606281;72;1205;-67
2021/08/26 05:08:49;;;;;;;;;;;23.30;45.40;;;;;;1581562;73;1922;-68
2021/08/26 05:10:50;;;;;;;;;;;23.30;45.50;;;;;;1605841;74;751;-67
2021/08/26 05:12:52;;;;;;;;;;;23.40;45.50;;;;;;1599131;74;790;-67
2021/08/26 05:14:54;;;;;;;;;;;23.30;45.50;;;;;;1600231;74;698;-68
2021/08/26 05:16:58;;;;;;;;;;;23.30;45.50;;;;;;1597259;74;1159;-67
2021/08/26 05:19:00;;;;;;;;;;;23.30;45.50;;;;;;1592342;74;825;-68
2021/08/26 05:21:02;;;;;;;;;;;23.30;45.50;;;;;;1596551;74;716;-68
2021/08/26 05:23:04;;;;;;;;;;;23.30;45.50;;;;;;1593357;74;705;-67
2021/08/26 05:25:06;;;;;;;;;;;23.30;45.40;;;;;;1597483;74;721;-67
2021/08/26 05:27:08;;;;;;;;;;;23.30;45.50;;;;;;1594438;74;1134;-67
2021/08/26 05:29:10;;;;;;;;;;;23.30;45.40;;;;;;1596728;74;1934;-68
2021/08/26 05:31:12;;;;;;;;;;;23.30;45.40;;;;;;1595663;74;816;-67
2021/08/26 05:33:14;;;;;;;;;;;23.30;45.50;;;;;;1606267;74;712;-67
2021/08/26 05:35:15;;;;;;;;;;;23.30;45.50;;;;;;1592678;74;775;-66
2021/08/26 05:37:17;;;;;;;;;;;23.30;45.60;;;;;;1585962;74;1100;-67
2021/08/26 05:39:19;;;;;;;;;;;23.30;45.70;;;;;;1605387;74;736;-67
2021/08/26 05:41:21;;;;;;;;;;;23.30;45.60;;;;;;1606091;74;736;-66
2021/08/26 05:43:23;;;;;;;;;;;23.30;45.80;;;;;;1585542;74;743;-65
2021/08/26 05:45:26;;;;;;;;;;;23.40;45.80;;;;;;1604598;74;658;-68
2021/08/26 05:47:28;;;;;;;;;;;23.40;45.80;;;;;;1595315;74;1036;-69
2021/08/26 05:49:30;;;;;;;;;;;23.30;45.70;;;;;;1588740;74;1942;-69
2021/08/26 05:51:32;;;;;;;;;;;23.30;45.80;;;;;;1589401;74;775;-68
2021/08/26 05:53:34;;;;;;;;;;;23.30;45.80;;;;;;1583788;74;724;-67
2021/08/26 05:55:35;;;;;;;;;;;23.30;45.80;;;;;;1587807;74;1131;-68
2021/08/26 05:57:37;;;;;;;;;;;23.20;45.70;;;;;;1599140;74;773;-68
2021/08/26 05:59:39;;;;;;;;;;;23.40;45.70;;;;;;1604762;74;781;-67
2021/08/26 06:01:42;;;;;;;;;;;23.40;45.80;;;;;;1590812;74;723;-65
2021/08/26 06:03:44;;;;;;;;;;;23.30;45.70;;;;;;1605938;74;788;-68
2021/08/26 06:05:46;;;;;;;;;;;23.30;45.70;;;;;;1594870;74;1264;-66
2021/08/26 06:07:48;;;;;;;;;;;23.30;45.60;;;;;;1585963;74;653;-69
2021/08/26 06:09:50;;;;;;;;;;;23.20;45.60;;;;;;1596372;74;1911;-69
2021/08/26 06:11:52;;;;;;;;;;;23.30;45.60;;;;;;1591384;74;718;-68
2021/08/26 06:13:53;;;;;;;;;;;23.30;45.60;;;;;;1597725;74;776;-66
2021/08/26 06:15:55;;;;;;;;;;;23.30;45.60;;;;;;1593177;74;1130;-68
2021/08/26 06:17:57;;;;;;;;;;;23.30;45.70;;;;;;1589531;74;781;-68
2021/08/26 06:19:59;;;;;;;;;;;23.30;45.50;;;;;;1608588;74;799;-68
2021/08/26 06:22:01;;;;;;;;;;;23.30;45.60;;;;;;1610110;74;763;-68
2021/08/26 06:24:06;;;;;;;;;;;23.30;45.70;;;;;;1587605;74;800;-67
2021/08/26 06:26:07;;;;;;;;;;;23.30;45.80;;;;;;1601392;74;1685;-68
2021/08/26 06:28:08;;;;;;;;;;;23.40;45.90;;;;;;1607279;74;787;-67
2021/08/26 06:30:10;;;;;;;;;;;23.30;45.80;;;;;;1603092;74;1924;-67
2021/08/26 06:32:12;;;;;;;;;;;23.30;45.90;;;;;;1604304;74;740;-66
2021/08/26 06:34:14;;;;;;;;;;;23.30;45.80;;;;;;1598122;74;823;-66
2021/08/26 06:36:16;;;;;;;;;;;23.30;45.90;;;;;;1592126;74;1120;-67
2021/08/26 06:38:18;;;;;;;;;;;23.20;45.80;;;;;;1603453;74;769;-68
2021/08/26 06:40:20;;;;;;;;;;;23.30;45.90;;;;;;1591301;74;685;-68
2021/08/26 06:42:22;;;;;;;;;;;23.30;45.90;;;;;;1596946;74;677;-68
2021/08/26 06:44:23;;;;;;;;;;;23.30;45.90;;;;;;1588757;74;771;-68
2021/08/26 06:46:25;;;;;;;;;;;23.30;45.90;;;;;;1595986;74;1134;-67
2021/08/26 06:48:27;;;;;;;;;;;23.30;46.10;;;;;;1597117;74;738;-67
2021/08/26 06:50:29;;;;;;;;;;;23.30;45.90;;;;;;1594791;74;1935;-67
2021/08/26 06:52:31;;;;;;;;;;;23.40;45.90;;;;;;1592830;74;769;-69
2021/08/26 06:54:33;;;;;;;;;;;23.30;46.00;;;;;;1601947;74;731;-68
2021/08/26 06:56:35;;;;;;;;;;;23.40;46.00;;;;;;1595159;74;1136;-70
2021/08/26 06:58:37;;;;;;;;;;;23.30;46.00;;;;;;1598436;74;833;-70
2021/08/26 07:00:38;;;;;;;;;;;23.30;46.10;;;;;;1596543;74;668;-70
2021/08/26 07:02:41;;;;;;;;;;;23.30;46.30;;;;;;1600984;74;787;-70
2021/08/26 07:04:43;;;;;;;;;;;23.30;46.40;;;;;;1606207;74;689;-70
2021/08/26 07:06:45;;;;;;;;;;;23.40;46.40;;;;;;1602907;74;1155;-69
2021/08/26 07:08:47;;;;;;;;;;;23.40;46.40;;;;;;1600051;74;808;-69
2021/08/26 07:10:49;;;;;;;;;;;23.40;46.30;;;;;;1603176;74;1958;-70
2021/08/26 07:12:51;;;;;;;;;;;23.30;46.40;;;;;;1604485;74;830;-67
2021/08/26 07:14:53;;;;;;;;;;;23.40;46.50;;;;;;1607204;74;776;-67
2021/08/26 07:16:55;;;;;;;;;;;23.40;46.40;;;;;;1604511;74;1151;-67
2021/08/26 07:18:56;;;;;;;;;;;23.30;46.50;;;;;;1597510;74;755;-67
2021/08/26 07:20:58;;;;;;;;;;;23.40;46.40;;;;;;1602672;74;837;-67
2021/08/26 07:23:00;;;;;;;;;;;23.40;46.50;;;;;;1601037;74;830;-67
2021/08/26 07:25:02;;;;;;;;;;;23.50;46.30;;;;;;1607307;74;782;-68
2021/08/26 07:27:04;;;;;;;;;;;23.40;46.30;;;;;;1600710;74;1115;-67
2021/08/26 07:29:06;;;;;;;;;;;23.40;46.50;;;;;;1603800;74;1946;-65
2021/08/26 07:31:08;;;;;;;;;;;23.50;46.40;;;;;;1597811;74;720;-68
2021/08/26 07:33:09;;;;;;;;;;;23.50;46.60;;;;;;1597752;74;736;-68
2021/08/26 07:35:11;;;;;;;;;;;23.50;46.30;;;;;;1603424;74;663;-67
2021/08/26 07:37:13;;;;;;;;;;;23.60;46.30;;;;;;1605132;74;1115;-68
2021/08/26 07:39:15;;;;;;;;;;;23.60;46.00;;;;;;1610033;74;723;-67
2021/08/26 07:41:17;;;;;;;;;;;23.50;45.90;;;;;;1598672;74;830;-68
2021/08/26 07:43:19;;;;;;;;;;;23.50;46.10;;;;;;1600923;74;776;-68
2021/08/26 07:45:21;;;;;;;;;;;23.50;45.80;;;;;;1606840;74;797;-69
2021/08/26 07:47:23;;;;;;;;;;;23.50;45.80;;;;;;1606231;74;1099;-68
2021/08/26 07:49:25;;;;;;;;;;;23.50;45.80;;;;;;1606819;74;1930;-67
2021/08/26 07:51:27;;;;;;;;;;;23.50;45.90;;;;;;1602680;74;779;-68
2021/08/26 07:53:29;;;;;;;;;;;23.40;45.80;;;;;;1591926;74;766;-68
2021/08/26 07:55:31;;;;;;;;;;;23.50;45.40;;;;;;1599972;74;781;-69
2021/08/26 07:57:33;;;;;;;;;;;23.50;45.30;;;;;;1575194;73;2162;-66
2021/08/26 07:59:35;;;;;;;;;;;23.50;45.30;;;;;;1572341;74;573;-66
2021/08/26 08:01:37;;;;;;;;;;;23.40;44.80;;;;;;1562974;75;770;-66
2021/08/26 08:03:39;;;;;;;;;;;23.40;44.80;;;;;;1555319;74;712;-67
2021/08/26 08:05:41;;;;;;;;;;;23.30;44.90;;;;;;1559227;74;729;-68
2021/08/26 08:07:45;;;;;;;;;;;23.40;45.00;;;;;;1564425;74;1201;-69
2021/08/26 08:09:46;;;;;;;;;;;23.40;45.10;;;;;;1559669;75;1928;-69
2021/08/26 08:11:48;;;;;;;;;;;23.40;45.00;;;;;;1565932;74;770;-66
2021/08/26 08:13:51;;;;;;;;;;;23.40;45.00;;;;;;1563486;74;739;-72
2021/08/26 08:15:53;;;;;;;;;;;23.20;44.50;;;;;;1561049;75;721;-68
2021/08/26 08:17:55;;;;;;;;;;;23.10;44.60;;;;;;1559733;75;1145;-70
2021/08/26 08:19:57;;;;;;;;;;;23.10;44.80;;;;;;1565722;75;712;-70
2021/08/26 08:22:00;;;;;;;;;;;23.10;44.70;;;;;;1566366;75;747;-68
2021/08/26 08:24:01;;;;;;;;;;;23.00;44.80;;;;;;1561797;75;787;-70
2021/08/26 08:26:03;;;;;;;;;;;23.10;45.20;;;;;;1564689;75;1128;-69
2021/08/26 08:28:13;;;;;;;;;;;23.00;44.90;;;;;;1561334;74;797;-67
2021/08/26 08:30:15;;;;;;;;;;;23.10;45.00;;;;;;1561421;75;1915;-70
2021/08/26 08:32:17;;;;;;;;;;;23.00;45.00;;;;;;1563141;75;711;-67
2021/08/26 08:34:19;;;;;;;;;;;23.10;45.40;;;;;;1558101;74;705;-68
2021/08/26 08:36:21;;;;;;;;;;;23.10;45.30;;;;;;1563434;75;1137;-67
2021/08/26 08:38:22;;;;;;;;;;;23.00;45.00;;;;;;1567710;74;767;-68
2021/08/26 08:40:25;;;;;;;;;;;23.00;45.10;;;;;;1563789;74;667;-69
2021/08/26 08:42:31;;;;;;;;;;;23.00;45.00;;;;;;1560348;75;749;-68
2021/08/26 08:44:31;;;;;;;;;;;23.00;44.90;;;;;;1562191;75;1118;-71
2021/08/26 08:46:33;;;;;;;;;;;23.00;45.40;;;;;;1562680;75;1191;-68
2021/08/26 08:48:35;;;;;;;;;;;23.00;45.70;;;;;;1562344;75;685;-68
2021/08/26 08:50:37;;;;;;;;;;;23.00;45.70;;;;;;1560793;74;1932;-67
2021/08/26 08:52:39;;;;;;;;;;;23.00;45.90;;;;;;1553736;75;695;-67
2021/08/26 08:54:41;;;;;;;;;;;23.00;45.80;;;;;;1552544;74;795;-67
2021/08/26 08:56:43;;;;;;;;;;;23.00;45.60;;;;;;1563530;74;1170;-67
2021/08/26 08:58:45;;;;;;;;;;;23.00;45.70;;;;;;1566584;75;704;-67
2021/08/26 09:00:47;;;;;;;;;;;23.00;45.60;;;;;;1556912;75;745;-68
2021/08/26 09:02:49;;;;;;;;;;;23.00;45.50;;;;;;1552953;75;746;-68
2021/08/26 09:04:55;;;;;;;;;;;23.10;45.60;;;;;;1563790;74;768;-68
2021/08/26 09:06:56;;;;;;;;;;;23.00;45.60;;;;;;1564028;75;1176;-68
2021/08/26 09:09:02;;;;;;;;;;;23.00;45.80;;;;;;1563263;75;748;-68
2021/08/26 09:11:11;;;;;;;;;;;23.00;46.00;;;;;;1561078;74;1906;-69
2021/08/26 09:13:13;;;;;;;;;;;22.90;46.10;;;;;;1564850;75;647;-69
2021/08/26 09:15:16;;;;;;;;;;;22.90;46.20;;;;;;1562429;74;665;-68
2021/08/26 09:17:18;;;;;;;;;;;22.90;46.10;;;;;;1556743;75;1158;-69
2021/08/26 09:19:21;;;;;;;;;;;22.90;46.20;;;;;;1561914;74;773;-69
2021/08/26 09:21:23;;;;;;;;;;;22.90;46.20;;;;;;1564520;74;629;-71
2021/08/26 09:23:25;;;;;;;;;;;22.90;46.20;;;;;;1534074;76;1206;-67
2021/08/26 09:25:27;;;;;;;;;;;22.90;46.20;;;;;;1565624;75;715;-69
2021/08/26 09:27:34;;;;;;;;;;;22.90;46.20;;;;;;1563587;75;1206;-68
2021/08/26 09:29:54;;;;;;;;;;;22.90;46.20;;;;;;1559930;74;656;-68
2021/08/26 09:31:56;;;;;;;;;;;22.90;46.20;;;;;;1561314;74;742;-67
2021/08/26 09:33:59;;;;;;;;;;;22.90;46.30;;;;;;1559781;74;785;-67
2021/08/26 09:36:00;;;;;;;;;;;22.90;46.20;;;;;;1560890;74;1115;-68
2021/08/26 09:38:04;;;;;;;;;;;22.90;46.30;;;;;;1564904;74;726;-68
2021/08/26 09:40:06;;;;;;;;;;;22.80;46.30;;;;;;1559145;74;1061;-67
2021/08/26 09:42:08;;;;;;;;;;;22.90;46.40;;;;;;1564815;75;729;-68
2021/08/26 09:44:24;;;;;;;;;;;22.90;46.60;;;;;;1567295;75;802;-67
2021/08/26 09:46:29;;;;;;;;;;;22.80;46.40;;;;;;1566931;75;1187;-70
2021/08/26 09:48:31;;;;;;;;;;;22.90;46.50;;;;;;1553264;75;718;-68
2021/08/26 09:50:38;;;;;;;;;;;22.80;46.50;;;;;;1560582;74;1938;-68
2021/08/26 09:52:41;;;;;;;;;;;22.80;46.50;;;;;;1565561;75;766;-69
2021/08/26 09:54:44;;;;;;;;;;;22.80;46.60;;;;;;1560456;75;1739;-68
2021/08/26 09:56:46;;;;;;;;;;;22.80;46.80;;;;;;1562545;74;1132;-68
2021/08/26 09:58:49;;;;;;;;;;;22.80;46.80;;;;;;1558103;74;798;-69
2021/08/26 10:00:53;;;;;;;;;;;22.80;46.80;;;;;;1554778;74;1766;-66
2021/08/26 10:02:55;;;;;;;;;;;22.80;46.90;;;;;;1550036;75;988;-69
2021/08/26 10:04:57;;;;;;;;;;;22.80;46.90;;;;;;1561823;74;668;-69
2021/08/26 10:06:58;;;;;;;;;;;22.80;46.90;;;;;;1560961;75;1157;-68
2021/08/26 10:09:00;;;;;;;;;;;22.90;47.10;;;;;;1563379;74;1181;-68
2021/08/26 10:11:02;;;;;;;;;;;22.90;47.20;;;;;;1565016;74;1926;-66
2021/08/26 10:13:04;;;;;;;;;;;22.80;47.20;;;;;;1557821;74;763;-68
2021/08/26 10:15:07;;;;;;;;;;;22.70;47.30;;;;;;1555314;75;836;-70
2021/08/26 10:17:09;;;;;;;;;;;22.60;47.20;;;;;;1527656;76;1359;-69
2021/08/26 10:19:15;;;;;;;;;;;22.60;47.30;;;;;;1559895;75;738;-68
2021/08/26 10:21:17;;;;;;;;;;;22.50;47.50;;;;;;1551851;74;1409;-68
2021/08/26 10:23:19;;;;;;;;;;;22.60;47.30;;;;;;1559229;75;684;-68
2021/08/26 10:25:21;;;;;;;;;;;22.50;47.50;;;;;;1553124;74;665;-69
2021/08/26 10:27:27;;;;;;;;;;;22.60;47.60;;;;;;1554510;75;1087;-68
2021/08/26 10:29:27;;;;;;;;;;;22.60;47.60;;;;;;1525457;76;1146;-68
2021/08/26 10:31:29;;;;;;;;;;;22.60;47.60;;;;;;1550795;75;1944;-68
2021/08/26 10:33:33;;;;;;;;;;;22.60;47.50;;;;;;1553029;75;1057;-69
2021/08/26 10:35:37;;;;;;;;;;;22.60;47.40;;;;;;1541674;74;844;-68
2021/08/26 10:37:47;;;;;;;;;;;22.60;47.50;;;;;;1550019;74;1576;-68
2021/08/26 10:39:49;;;;;;;;;;;22.60;47.40;;;;;;1550289;74;1586;-67
2021/08/26 10:41:50;;;;;;;;;;;22.50;47.20;;;;;;1545751;75;660;-68
2021/08/26 10:43:57;;;;;;;;;;;22.50;47.10;;;;;;1548822;75;777;-68
2021/08/26 10:45:59;;;;;;;;;;;22.50;47.30;;;;;;1549744;75;1184;-68
2021/08/26 10:48:03;;;;;;;;;;;22.50;47.30;;;;;;1548698;75;685;-68
2021/08/26 10:50:15;;;;;;;;;;;22.50;47.10;;;;;;1549489;75;945;-68
2021/08/26 10:52:17;;;;;;;;;;;22.50;47.20;;;;;;1546697;74;762;-68
2021/08/26 10:54:32;;;;;;;;;;;22.50;47.20;;;;;;1516914;76;985;-69
2021/08/26 10:56:35;;;;;;;;;;;22.60;47.40;;;;;;1481540;78;1135;-68
2021/08/26 10:58:37;;;;;;;;;;;22.50;47.60;;;;;;1544601;75;983;-66
2021/08/26 11:00:42;;;;;;;;;;;22.50;47.40;;;;;;1551115;74;729;-68
2021/08/26 11:02:44;;;;;;;;;;;22.50;47.40;;;;;;1556580;74;725;-67
2021/08/26 11:04:46;;;;;;;;;;;22.50;47.30;;;;;;1551167;75;707;-67
2021/08/26 11:06:48;;;;;;;;;;;22.50;47.30;;;;;;1544987;75;1114;-68
2021/08/26 11:08:55;;;;;;;;;;;22.50;47.30;;;;;;1549686;74;743;-69
2021/08/26 11:10:54;;;;;;;;;;;22.40;47.20;;;;;;1546093;74;1920;-69
2021/08/26 11:13:14;;;;;;;;;;;22.50;47.30;;;;;;1551793;75;716;-68
2021/08/26 11:15:18;;;;;;;;;;;22.50;47.30;;;;;;1545706;75;721;-68
2021/08/26 11:17:25;;;;;;;;;;;22.50;47.30;;;;;;1545544;75;1790;-67
2021/08/26 11:19:27;;;;;;;;;;;22.50;47.40;;;;;;1545068;74;1318;-68
2021/08/26 11:21:46;;;;;;;;;;;22.50;47.30;;;;;;1548723;74;761;-67
2021/08/26 11:23:48;;;;;;;;;;;22.50;47.40;;;;;;1546483;74;699;-67
2021/08/26 11:25:50;;;;;;;;;;;22.50;47.40;;;;;;1547277;75;705;-68
2021/08/26 11:27:52;;;;;;;;;;;22.50;47.30;;;;;;1540785;74;1079;-68
2021/08/26 11:29:54;;;;;;;;;;;22.40;47.20;;;;;;1530986;76;1158;-68
2021/08/26 11:31:58;;;;;;;;;;;22.50;47.40;;;;;;1554243;74;1932;-68
2021/08/26 11:33:59;;;;;;;;;;;22.50;47.40;;;;;;1553704;74;744;-69
2021/08/26 11:36:01;;;;;;;;;;;22.60;47.40;;;;;;1554992;74;1197;-69
2021/08/26 11:38:03;;;;;;;;;;;22.50;47.80;;;;;;1536285;76;1042;-66
2021/08/26 11:40:07;;;;;;;;;;;22.60;47.60;;;;;;1545284;75;695;-69
2021/08/26 11:42:09;;;;;;;;;;;22.50;47.60;;;;;;1555934;75;736;-69
2021/08/26 11:44:15;;;;;;;;;;;22.50;47.70;;;;;;1550198;75;736;-68
2021/08/26 11:46:17;;;;;;;;;;;22.50;47.70;;;;;;1551737;74;1149;-69
2021/08/26 11:48:19;;;;;;;;;;;22.50;47.60;;;;;;1549324;74;650;-69
2021/08/26 11:50:32;;;;;;;;;;;22.40;47.60;;;;;;1549035;74;729;-69
2021/08/26 11:52:33;;;;;;;;;;;22.50;47.80;;;;;;1531583;76;1025;-69
2021/08/26 11:54:36;;;;;;;;;;;22.50;47.80;;;;;;1546407;74;707;-69
2021/08/26 11:56:42;;;;;;;;;;;22.50;47.80;;;;;;1549007;75;1090;-68
2021/08/26 11:58:44;;;;;;;;;;;22.40;47.80;;;;;;1548771;74;744;-68
2021/08/26 12:00:53;;;;;;;;;;;22.40;47.80;;;;;;1548950;75;717;-69
2021/08/26 12:02:55;;;;;;;;;;;22.40;47.80;;;;;;1552670;75;1527;-68
2021/08/26 12:05:00;;;;;;;;;;;22.30;47.90;;;;;;1546641;74;810;-68
2021/08/26 12:07:02;;;;;;;;;;;22.20;47.70;;;;;;1543598;75;1164;-69
2021/08/26 12:09:04;;;;;;;;;;;22.30;47.80;;;;;;1550544;74;744;-69
2021/08/26 12:11:06;;;;;;;;;;;22.40;47.80;;;;;;1552587;75;1934;-69
2021/08/26 12:13:08;;;;;;;;;;;22.20;47.80;;;;;;1549272;75;724;-69
2021/08/26 12:15:12;;;;;;;;;;;22.10;47.90;;;;;;1546006;75;761;-69